createdAt,value
2023-03-16T00:01:51.338Z,25.0
2023-03-16T00:04:32.074Z,25.0
2023-03-16T00:07:02.750Z,25.0
2023-03-16T00:09:33.360Z,25.0
2023-03-16T00:12:04.084Z,25.0
2023-03-16T00:14:34.708Z,25.0
2023-03-16T00:17:05.341Z,25.0
2023-03-16T00:19:45.944Z,25.0
2023-03-16T00:24:46.605Z,25.0
2023-03-16T00:27:17.279Z,25.0
2023-03-16T00:29:48.023Z,25.0
2023-03-16T00:32:28.743Z,25.0
2023-03-16T00:34:59.475Z,26.0
2023-03-16T00:37:30.499Z,26.0
2023-03-16T00:40:01.225Z,26.0
2023-03-16T00:42:31.898Z,26.0
2023-03-16T00:45:02.543Z,26.0
2023-03-16T00:47:43.167Z,26.0
2023-03-16T00:50:13.828Z,26.0
2023-03-16T00:52:44.459Z,26.0
2023-03-16T00:55:15.155Z,26.0
2023-03-16T00:57:45.814Z,26.0
2023-03-16T01:00:16.469Z,26.0
2023-03-16T01:05:27.433Z,26.0
2023-03-16T01:07:58.064Z,26.0
2023-03-16T01:10:29.086Z,26.0
2023-03-16T01:12:59.931Z,27.0
2023-03-16T01:15:30.574Z,27.0
2023-03-16T01:18:11.188Z,27.0
2023-03-16T01:20:41.824Z,27.0
2023-03-16T01:23:12.439Z,27.0
2023-03-16T01:25:43.050Z,27.0
2023-03-16T01:28:13.668Z,27.0
2023-03-16T01:30:44.403Z,27.0
2023-03-16T01:33:25.079Z,27.0
2023-03-16T01:35:55.794Z,27.0
2023-03-16T01:38:26.501Z,27.0
2023-03-16T01:40:57.095Z,27.0
2023-03-16T01:46:07.852Z,27.0
2023-03-16T01:48:38.752Z,26.0
2023-03-16T01:51:09.365Z,27.0
2023-03-16T01:53:39.975Z,27.0
2023-03-16T01:56:10.615Z,27.0
2023-03-16T01:58:41.434Z,26.0
2023-03-16T02:01:22.186Z,26.0
2023-03-16T02:03:52.875Z,26.0
2023-03-16T02:06:23.873Z,26.0
2023-03-16T02:08:54.464Z,26.0
2023-03-16T02:11:25.064Z,26.0
2023-03-16T02:13:55.686Z,27.0
2023-03-16T02:16:36.336Z,27.0
2023-03-16T02:19:06.969Z,27.0
2023-03-16T02:21:37.569Z,27.0
2023-03-16T02:26:38.207Z,26.0
2023-03-16T02:29:08.835Z,27.0
2023-03-16T02:31:49.459Z,27.0
2023-03-16T02:34:20.096Z,27.0
2023-03-16T02:36:50.778Z,27.0
2023-03-16T02:39:21.372Z,27.0
2023-03-16T02:41:52.044Z,27.0
2023-03-16T02:44:22.751Z,27.0
2023-03-16T02:47:03.436Z,27.0
2023-03-16T02:49:34.027Z,27.0
2023-03-16T02:52:04.665Z,27.0
2023-03-16T02:54:35.263Z,27.0
2023-03-16T02:57:05.880Z,27.0
2023-03-16T02:59:46.556Z,27.0
2023-03-16T03:02:18.252Z,27.0
2023-03-16T03:07:18.888Z,27.0
2023-03-16T03:09:49.518Z,27.0
2023-03-16T03:12:20.158Z,27.0
2023-03-16T03:15:10.894Z,27.0
2023-03-16T03:17:41.490Z,27.0
2023-03-16T03:20:12.168Z,27.0
2023-03-16T03:22:42.956Z,27.0
2023-03-16T03:25:13.632Z,27.0
2023-03-16T03:30:24.298Z,28.0
2023-03-16T03:32:55.224Z,28.0
2023-03-16T03:35:26.138Z,28.0
2023-03-16T03:37:56.814Z,28.0
2023-03-16T03:40:27.828Z,27.0
2023-03-16T03:42:58.599Z,27.0
2023-03-16T03:48:09.372Z,27.0
2023-03-16T03:50:40.414Z,27.0
2023-03-16T03:53:11.036Z,27.0
2023-03-16T03:55:41.665Z,27.0
2023-03-16T03:58:12.285Z,27.0
2023-03-16T04:00:52.940Z,27.0
2023-03-16T04:03:23.882Z,28.0
2023-03-16T04:05:54.670Z,27.0
2023-03-16T04:08:25.272Z,27.0
2023-03-16T04:10:55.918Z,27.0
2023-03-16T04:13:36.552Z,28.0
2023-03-16T04:16:07.221Z,28.0
2023-03-16T04:18:38.459Z,28.0
2023-03-16T04:21:09.194Z,28.0
2023-03-16T04:23:39.806Z,28.0
2023-03-16T04:31:20.618Z,28.0
2023-03-16T04:33:51.257Z,28.0
2023-03-16T04:36:21.937Z,28.0
2023-03-16T04:38:52.573Z,28.0
2023-03-16T04:41:23.197Z,29.0
2023-03-16T04:44:03.789Z,29.0
2023-03-16T04:46:34.575Z,29.0
2023-03-16T04:49:05.328Z,29.0
2023-03-16T04:51:35.943Z,29.0
2023-03-16T04:54:06.547Z,29.0
2023-03-16T04:56:37.208Z,29.0
2023-03-16T04:59:17.839Z,29.0
2023-03-16T05:01:48.719Z,29.0
2023-03-16T05:04:21.822Z,29.0
2023-03-16T05:09:22.480Z,29.0
2023-03-16T05:12:03.096Z,29.0
2023-03-16T05:14:33.706Z,29.0
2023-03-16T05:17:04.342Z,28.0
2023-03-16T05:19:34.968Z,28.0
2023-03-16T05:22:05.562Z,28.0
2023-03-16T05:27:16.161Z,28.0
2023-03-16T05:29:46.785Z,28.0
2023-03-16T05:32:17.401Z,28.0
2023-03-16T05:34:48.270Z,28.0
2023-03-16T05:37:18.886Z,28.0
2023-03-16T05:39:49.505Z,28.0
2023-03-16T05:42:30.424Z,27.0
2023-03-16T05:45:01.558Z,27.0
2023-03-16T05:50:02.205Z,27.0
2023-03-16T05:52:32.848Z,27.0
2023-03-16T05:55:03.476Z,27.0
2023-03-16T05:57:44.095Z,27.0
2023-03-16T06:00:14.780Z,27.0
2023-03-16T06:02:45.431Z,27.0
2023-03-16T06:05:16.120Z,27.0
2023-03-16T06:07:46.734Z,27.0
2023-03-16T06:10:27.608Z,26.0
2023-03-16T06:12:59.891Z,26.0
2023-03-16T06:15:30.651Z,26.0
2023-03-16T06:18:01.321Z,25.0
2023-03-16T06:20:31.946Z,25.0
2023-03-16T06:23:02.564Z,25.0
2023-03-16T06:25:43.181Z,25.0
2023-03-16T06:30:43.810Z,25.0
2023-03-16T06:33:14.478Z,25.0
2023-03-16T06:35:45.108Z,25.0
2023-03-16T06:38:15.838Z,25.0
2023-03-16T06:40:56.463Z,25.0
2023-03-16T06:43:27.096Z,25.0
2023-03-16T06:45:57.889Z,24.0
2023-03-16T06:48:28.618Z,24.0
2023-03-16T06:50:59.229Z,24.0
2023-03-16T06:53:29.850Z,24.0
2023-03-16T06:56:10.588Z,24.0
2023-03-16T06:58:41.271Z,24.0
2023-03-16T07:01:12.007Z,24.0
2023-03-16T07:03:42.766Z,24.0
2023-03-16T07:06:13.468Z,23.0
2023-03-16T07:11:24.078Z,23.0
2023-03-16T07:13:54.694Z,23.0
2023-03-16T07:16:25.462Z,23.0
2023-03-16T07:18:56.149Z,22.0
2023-03-16T07:21:26.800Z,22.0
2023-03-16T07:24:07.411Z,22.0
2023-03-16T07:26:38.024Z,22.0
2023-03-16T07:29:08.648Z,22.0
2023-03-16T07:31:39.370Z,22.0
2023-03-16T07:34:10.086Z,22.0
2023-03-16T07:36:40.706Z,22.0
2023-03-16T07:39:21.299Z,22.0
2023-03-16T07:41:51.924Z,22.0
2023-03-16T07:44:32.530Z,22.0
2023-03-16T07:47:03.163Z,22.0
2023-03-16T07:52:03.792Z,22.0
2023-03-16T07:54:44.414Z,22.0
2023-03-16T07:57:15.032Z,21.0
2023-03-16T07:59:45.687Z,21.0
2023-03-16T08:02:16.399Z,21.0
2023-03-16T08:04:47.128Z,21.0
2023-03-16T08:07:17.808Z,21.0
2023-03-16T08:09:58.405Z,21.0
2023-03-16T08:12:29.038Z,21.0
2023-03-16T08:14:59.771Z,21.0
2023-03-16T08:17:30.418Z,21.0
2023-03-16T08:20:01.076Z,21.0
2023-03-16T08:25:11.709Z,21.0
2023-03-16T08:27:42.337Z,21.0
2023-03-16T08:32:43.105Z,21.0
2023-03-16T08:35:13.917Z,21.0
2023-03-16T08:37:54.778Z,21.0
2023-03-16T08:40:25.411Z,21.0
2023-03-16T08:42:56.011Z,21.0
2023-03-16T08:45:26.656Z,21.0
2023-03-16T08:47:57.265Z,21.0
2023-03-16T08:50:28.096Z,21.0
2023-03-16T08:53:08.911Z,21.0
2023-03-16T08:55:39.586Z,21.0
2023-03-16T08:58:10.199Z,21.0
2023-03-16T09:00:41.330Z,21.0
2023-03-16T09:03:11.976Z,21.0
2023-03-16T09:05:42.628Z,21.0
2023-03-16T09:08:23.263Z,21.0
2023-03-16T09:13:23.884Z,22.0
2023-03-16T09:15:54.568Z,22.0
2023-03-16T09:18:25.316Z,22.0
2023-03-16T09:21:05.922Z,22.0
2023-03-16T09:23:36.536Z,23.0
2023-03-16T09:26:07.252Z,23.0
2023-03-16T09:28:38.117Z,23.0
2023-03-16T09:31:08.771Z,24.0
2023-03-16T09:36:19.542Z,24.0
2023-03-16T09:38:50.180Z,24.0
2023-03-16T09:41:20.827Z,24.0
2023-03-16T09:43:51.426Z,25.0
2023-03-16T09:48:52.064Z,26.0
2023-03-16T09:59:11.993Z,27.0
2023-03-16T10:01:53.068Z,27.0
2023-03-16T10:02:23.703Z,27.0
2023-03-16T10:02:54.336Z,27.0
2023-03-16T10:04:15.129Z,27.0
2023-03-16T10:06:45.851Z,28.0
2023-03-16T10:09:16.459Z,29.0
2023-03-16T10:11:47.125Z,30.0
2023-03-16T10:14:17.946Z,30.0
2023-03-16T10:16:48.927Z,30.0
2023-03-16T10:19:29.598Z,30.0
2023-03-16T10:22:00.282Z,30.0
2023-03-16T10:24:31.052Z,32.0
2023-03-16T10:27:01.719Z,33.0
2023-03-16T10:29:32.351Z,32.0
2023-03-16T10:34:53.029Z,33.0
2023-03-16T10:37:23.869Z,34.0
2023-03-16T10:39:54.585Z,33.0
2023-03-16T10:42:25.231Z,34.0
2023-03-16T10:44:55.860Z,34.0
2023-03-16T10:47:26.561Z,35.0
2023-03-16T10:50:07.344Z,35.0
2023-03-16T10:52:38.160Z,35.0
2023-03-16T10:55:08.789Z,35.0
2023-03-16T10:57:39.409Z,35.0
2023-03-16T11:00:10.051Z,36.0
2023-03-16T11:02:50.805Z,36.0
2023-03-16T11:05:21.493Z,37.0
2023-03-16T11:07:52.351Z,37.0
2023-03-16T11:10:23.006Z,37.0
2023-03-16T11:15:39.683Z,37.0
2023-03-16T11:18:00.312Z,37.0
2023-03-16T11:23:00.961Z,39.0
2023-03-16T11:25:31.589Z,39.0
2023-03-16T11:28:02.434Z,38.0
2023-03-16T11:30:33.134Z,40.0
2023-03-16T11:33:13.823Z,41.0
2023-03-16T11:35:56.588Z,41.0
2023-03-16T11:38:19.038Z,40.0
2023-03-16T11:40:49.876Z,40.0
2023-03-16T11:43:20.505Z,40.0
2023-03-16T11:45:51.161Z,41.0
2023-03-16T11:48:31.832Z,42.0
2023-03-16T11:51:02.435Z,41.0
2023-03-16T11:56:03.124Z,43.0
2023-03-16T11:58:33.772Z,44.0
2023-03-16T12:01:04.416Z,43.0
2023-03-16T12:03:45.235Z,43.0
2023-03-16T12:06:27.265Z,45.0
2023-03-16T12:08:47.874Z,45.0
2023-03-16T12:11:18.498Z,45.0
2023-03-16T12:13:49.144Z,46.0
2023-03-16T12:16:35.917Z,45.0
2023-03-16T12:19:03.470Z,46.0
2023-03-16T12:21:34.079Z,47.0
2023-03-16T12:24:04.676Z,47.0
2023-03-16T12:26:35.288Z,47.0
2023-03-16T12:29:05.910Z,46.0
2023-03-16T12:31:46.648Z,47.0
2023-03-16T12:36:47.307Z,48.0
2023-03-16T12:39:17.931Z,48.0
2023-03-16T12:41:48.534Z,47.0
2023-03-16T12:44:19.175Z,49.0
2023-03-16T12:46:59.822Z,49.0
2023-03-16T12:49:30.456Z,51.0
2023-03-16T12:52:01.074Z,50.0
2023-03-16T12:54:31.988Z,50.0
2023-03-16T12:57:02.633Z,51.0
2023-03-16T12:59:33.239Z,51.0
2023-03-16T13:02:13.906Z,51.0
2023-03-16T13:04:44.683Z,52.0
2023-03-16T13:07:15.516Z,52.0
2023-03-16T13:09:46.127Z,52.0
2023-03-16T13:12:16.758Z,53.0
2023-03-16T13:17:27.637Z,53.0
2023-03-16T13:19:59.624Z,53.0
2023-03-16T13:22:32.309Z,54.0
2023-03-16T13:25:02.961Z,54.0
2023-03-16T13:27:33.618Z,54.0
2023-03-16T13:30:14.267Z,52.0
2023-03-16T13:32:45.105Z,54.0
2023-03-16T13:35:15.789Z,54.0
2023-03-16T13:37:46.406Z,54.0
2023-03-16T13:40:17.031Z,54.0
2023-03-16T13:42:48.391Z,54.0
2023-03-16T13:45:29.038Z,55.0
2023-03-16T13:47:59.734Z,55.0
2023-03-16T13:50:30.683Z,55.0
2023-03-16T13:53:04.098Z,55.0
2023-03-16T13:58:04.810Z,55.0
2023-03-16T14:00:45.430Z,55.0
2023-03-16T14:03:16.343Z,55.0
2023-03-16T14:05:46.995Z,55.0
2023-03-16T14:08:17.607Z,55.0
2023-03-16T14:10:48.239Z,55.0
2023-03-16T14:13:11.627Z,55.0
2023-03-16T14:15:52.294Z,55.0
2023-03-16T14:20:53.154Z,56.0
2023-03-16T14:23:33.750Z,56.0
2023-03-16T14:28:44.459Z,56.0
2023-03-16T14:31:15.224Z,56.0
2023-03-16T14:38:45.943Z,56.0
2023-03-16T14:41:16.585Z,56.0
2023-03-16T14:43:57.456Z,56.0
2023-03-16T14:46:28.291Z,56.0
2023-03-16T14:48:59.008Z,56.0
2023-03-16T14:51:29.610Z,56.0
2023-03-16T14:54:00.217Z,56.0
2023-03-16T14:56:30.838Z,56.0
2023-03-16T14:59:11.459Z,56.0
2023-03-16T15:01:42.179Z,56.0
2023-03-16T15:04:12.828Z,56.0
2023-03-16T15:06:43.431Z,56.0
2023-03-16T15:09:14.046Z,56.0
2023-03-16T15:11:44.746Z,56.0
2023-03-16T15:14:25.454Z,56.0
2023-03-16T15:19:26.066Z,56.0
2023-03-16T15:21:56.698Z,56.0
2023-03-16T15:24:27.312Z,56.0
2023-03-16T15:27:07.928Z,56.0
2023-03-16T15:29:38.550Z,56.0
2023-03-16T15:32:09.161Z,56.0
2023-03-16T15:34:39.791Z,56.0
2023-03-16T15:37:10.453Z,56.0
2023-03-16T15:39:41.066Z,56.0
2023-03-16T15:42:21.727Z,56.0
2023-03-16T15:44:52.327Z,56.0
2023-03-16T15:47:22.962Z,57.0
2023-03-16T15:49:58.252Z,57.0
2023-03-16T15:52:28.855Z,57.0
2023-03-16T15:54:59.468Z,57.0
2023-03-16T16:00:10.085Z,57.0
2023-03-16T16:02:40.706Z,57.0
2023-03-16T16:05:11.327Z,57.0
2023-03-16T16:07:43.945Z,57.0
2023-03-16T16:10:14.655Z,57.0
2023-03-16T16:12:55.286Z,57.0
2023-03-16T16:15:25.913Z,57.0
2023-03-16T16:18:20.739Z,57.0
2023-03-16T16:20:21.906Z,57.0
2023-03-16T16:22:52.625Z,57.0
2023-03-16T16:25:33.512Z,57.0
2023-03-16T16:28:04.149Z,57.0
2023-03-16T16:30:34.806Z,57.0
2023-03-16T16:33:07.895Z,57.0
2023-03-16T16:35:39.105Z,57.0
2023-03-16T16:40:49.827Z,57.0
2023-03-16T16:43:20.486Z,57.0
2023-03-16T16:45:51.260Z,57.0
2023-03-16T16:48:22.057Z,57.0
2023-03-16T16:50:52.739Z,57.0
2023-03-16T16:53:23.399Z,57.0
2023-03-16T16:56:04.022Z,57.0
2023-03-16T16:58:35.333Z,57.0
2023-03-16T17:01:06.036Z,57.0
2023-03-16T17:03:36.685Z,57.0
2023-03-16T17:06:07.310Z,57.0
2023-03-16T17:08:37.942Z,57.0
2023-03-16T17:11:18.580Z,57.0
2023-03-16T17:13:49.228Z,57.0
2023-03-16T17:16:19.896Z,57.0
2023-03-16T17:21:20.586Z,57.0
2023-03-16T17:24:01.256Z,57.0
2023-03-16T17:26:31.855Z,57.0
2023-03-16T17:29:02.496Z,57.0
2023-03-16T17:31:33.269Z,57.0
2023-03-16T17:34:03.888Z,57.0
2023-03-16T17:36:36.913Z,57.0
2023-03-16T17:39:17.545Z,57.0
2023-03-16T17:41:48.197Z,57.0
2023-03-16T17:44:18.815Z,57.0
2023-03-16T17:46:49.573Z,57.0
2023-03-16T17:49:20.248Z,57.0
2023-03-16T17:51:50.890Z,57.0
2023-03-16T17:54:31.513Z,57.0
2023-03-16T17:57:02.162Z,57.0
2023-03-16T18:02:02.950Z,57.0
2023-03-16T18:04:33.589Z,57.0
2023-03-16T18:07:04.229Z,57.0
2023-03-16T18:09:44.848Z,57.0
2023-03-16T18:12:15.453Z,57.0
2023-03-16T18:14:46.057Z,57.0
2023-03-16T18:17:16.693Z,57.0
2023-03-16T18:19:47.359Z,57.0
2023-03-16T18:22:28.083Z,57.0
2023-03-16T18:24:58.751Z,57.0
2023-03-16T18:27:29.385Z,57.0
2023-03-16T18:30:00.016Z,57.0
2023-03-16T18:32:30.687Z,57.0
2023-03-16T18:35:03.519Z,57.0
2023-03-16T18:37:44.461Z,57.0
2023-03-16T18:42:45.068Z,57.0
2023-03-16T18:45:15.678Z,57.0
2023-03-16T18:47:46.286Z,57.0
2023-03-16T18:50:16.947Z,57.0
2023-03-16T18:52:57.600Z,57.0
2023-03-16T18:55:28.494Z,57.0
2023-03-16T18:57:59.481Z,57.0
2023-03-16T19:00:30.161Z,57.0
2023-03-16T19:03:00.879Z,57.0
2023-03-16T19:05:31.633Z,58.0
2023-03-16T19:08:12.360Z,58.0
2023-03-16T19:10:43.018Z,58.0
2023-03-16T19:13:13.653Z,58.0
2023-03-16T19:15:44.295Z,58.0
2023-03-16T19:18:15.032Z,58.0
2023-03-16T19:23:25.666Z,58.0
2023-03-16T19:25:56.376Z,58.0
2023-03-16T19:28:26.976Z,58.0
2023-03-16T19:30:57.655Z,58.0
2023-03-16T19:33:28.287Z,58.0
2023-03-16T19:36:09.698Z,58.0
2023-03-16T19:38:40.376Z,58.0
2023-03-16T19:41:11.012Z,58.0
2023-03-16T19:43:41.630Z,58.0
2023-03-16T19:46:12.378Z,58.0
2023-03-16T19:48:43.258Z,58.0
2023-03-16T19:51:23.878Z,58.0
2023-03-16T19:53:54.500Z,58.0
2023-03-16T19:56:26.809Z,58.0
2023-03-16T19:58:57.574Z,58.0
2023-03-16T20:03:58.276Z,58.0
2023-03-16T20:06:38.958Z,58.0
2023-03-16T20:09:10.418Z,58.0
2023-03-16T20:11:41.037Z,58.0
2023-03-16T20:14:11.753Z,58.0
2023-03-16T20:16:42.601Z,58.0
2023-03-16T20:19:13.547Z,58.0
2023-03-16T20:21:54.152Z,58.0
2023-03-16T20:24:24.816Z,58.0
2023-03-16T20:26:55.450Z,58.0
2023-03-16T20:29:26.040Z,58.0
2023-03-16T20:31:56.674Z,58.0
2023-03-16T20:34:37.304Z,58.0
2023-03-16T20:37:07.949Z,58.0
2023-03-16T20:39:38.565Z,58.0
2023-03-16T20:44:39.236Z,58.0
2023-03-16T20:47:09.871Z,58.0
2023-03-16T20:50:00.498Z,58.0
2023-03-16T20:52:31.295Z,58.0
2023-03-16T20:55:01.996Z,58.0
2023-03-16T20:57:32.612Z,58.0
2023-03-16T21:00:03.278Z,58.0
2023-03-16T21:02:33.972Z,58.0
2023-03-16T21:05:14.748Z,58.0
2023-03-16T21:07:45.365Z,58.0
2023-03-16T21:10:16.025Z,58.0
2023-03-16T21:12:46.649Z,58.0
2023-03-16T21:15:17.288Z,58.0
2023-03-16T21:17:48.388Z,58.0
2023-03-16T21:20:29.060Z,58.0
2023-03-16T21:25:29.805Z,58.0
2023-03-16T21:28:00.537Z,58.0
2023-03-16T21:30:31.254Z,58.0
2023-03-16T21:33:02.104Z,58.0
2023-03-16T21:35:43.016Z,58.0
2023-03-16T21:38:13.779Z,58.0
2023-03-16T21:40:44.427Z,58.0
2023-03-16T21:43:15.072Z,58.0
2023-03-16T21:45:45.717Z,58.0
2023-03-16T21:48:26.336Z,58.0
2023-03-16T21:50:56.955Z,58.0
2023-03-16T21:53:27.688Z,58.0
2023-03-16T21:55:58.322Z,58.0
2023-03-16T21:58:28.932Z,58.0
2023-03-16T22:00:59.561Z,58.0
2023-03-16T22:06:11.906Z,58.0
2023-03-16T22:08:43.139Z,58.0
2023-03-16T22:11:13.773Z,58.0
2023-03-16T22:13:44.388Z,58.0
2023-03-16T22:16:15.147Z,58.0
2023-03-16T22:18:55.928Z,58.0
2023-03-16T22:21:26.639Z,58.0
2023-03-16T22:23:57.374Z,58.0
2023-03-16T22:26:28.004Z,58.0
2023-03-16T22:28:58.625Z,58.0
2023-03-16T22:31:29.359Z,58.0
2023-03-16T22:34:10.043Z,58.0
2023-03-16T22:36:40.667Z,58.0
2023-03-16T22:39:11.284Z,58.0
2023-03-16T22:41:41.945Z,58.0
2023-03-16T22:46:42.575Z,58.0
2023-03-16T22:49:23.175Z,58.0
2023-03-16T22:51:53.783Z,58.0
2023-03-16T22:54:24.390Z,58.0
2023-03-16T22:56:54.999Z,58.0
2023-03-16T22:59:25.596Z,58.0
2023-03-16T23:02:06.219Z,58.0
2023-03-16T23:04:36.972Z,58.0
2023-03-16T23:07:07.673Z,59.0
2023-03-16T23:09:38.285Z,59.0
2023-03-16T23:12:09.036Z,59.0
2023-03-16T23:14:39.665Z,59.0
2023-03-16T23:17:20.349Z,59.0
2023-03-16T23:19:51.014Z,59.0
2023-03-16T23:22:21.624Z,59.0
2023-03-16T23:27:22.294Z,59.0
2023-03-16T23:29:52.973Z,59.0
2023-03-16T23:32:33.640Z,59.0
2023-03-16T23:35:04.327Z,59.0
2023-03-16T23:37:34.961Z,59.0
2023-03-16T23:40:05.573Z,59.0
2023-03-16T23:42:36.193Z,59.0
2023-03-16T23:45:16.804Z,59.0
2023-03-16T23:47:47.435Z,59.0
2023-03-16T23:50:18.063Z,59.0
2023-03-16T23:52:49.051Z,59.0
2023-03-16T23:55:19.677Z,60.0
2023-03-16T23:57:50.294Z,60.0
